KSLC -- Salt Lake City

Departure Runway

16R

Arrival Runway

16L

Secondary Runway

17

KSLC 080254Z 15004KT 10SM CLR M06/M12 A3032 RMK AO2 SLP301 T10561117 51007
KBOI -- Boise

Departure Runway

10L

Arrival Runway

10R

Secondary Runway

N/A

KBOI 080253Z 14007KT 10SM CLR M07/M11 A3036 RMK AO2 SLP318 T10671106 58002